sensor_id;sensor_type;location;lat;lon;timestamp;P1;durP1;ratioP1;P2;durP2;ratioP2
75220;SDS011;63802;53.232;6.570;2023-04-21T00:01:15;30.20;;;12.38;;
75220;SDS011;63802;53.232;6.570;2023-04-21T00:03:41;25.20;;;12.50;;
75220;SDS011;63802;53.232;6.570;2023-04-21T00:06:08;26.67;;;13.27;;
75220;SDS011;63802;53.232;6.570;2023-04-21T00:08:33;28.67;;;12.63;;
75220;SDS011;63802;53.232;6.570;2023-04-21T00:11:04;27.02;;;12.35;;
75220;SDS011;63802;53.232;6.570;2023-04-21T00:13:30;27.02;;;11.30;;
75220;SDS011;63802;53.232;6.570;2023-04-21T00:15:56;27.40;;;12.77;;
75220;SDS011;63802;53.232;6.570;2023-04-21T00:18:22;26.30;;;12.02;;
75220;SDS011;63802;53.232;6.570;2023-04-21T00:20:48;27.75;;;12.77;;
75220;SDS011;63802;53.232;6.570;2023-04-21T00:23:13;23.95;;;11.70;;
75220;SDS011;63802;53.232;6.570;2023-04-21T00:25:39;26.75;;;12.00;;
75220;SDS011;63802;53.232;6.570;2023-04-21T00:28:04;27.60;;;12.57;;
75220;SDS011;63802;53.232;6.570;2023-04-21T00:30:30;28.38;;;12.75;;
75220;SDS011;63802;53.232;6.570;2023-04-21T00:32:55;22.60;;;11.65;;
75220;SDS011;63802;53.232;6.570;2023-04-21T00:35:20;30.20;;;13.43;;
75220;SDS011;63802;53.232;6.570;2023-04-21T00:37:46;30.10;;;12.50;;
75220;SDS011;63802;53.232;6.570;2023-04-21T00:40:11;31.38;;;12.27;;
75220;SDS011;63802;53.232;6.570;2023-04-21T00:42:38;28.95;;;13.05;;
75220;SDS011;63802;53.232;6.570;2023-04-21T00:45:03;28.67;;;12.90;;
75220;SDS011;63802;53.232;6.570;2023-04-21T00:47:29;24.25;;;11.45;;
75220;SDS011;63802;53.232;6.570;2023-04-21T00:49:56;31.10;;;13.75;;
75220;SDS011;63802;53.232;6.570;2023-04-21T00:52:22;26.48;;;12.07;;
75220;SDS011;63802;53.232;6.570;2023-04-21T00:54:47;29.85;;;13.25;;
75220;SDS011;63802;53.232;6.570;2023-04-21T00:57:14;27.35;;;12.55;;
75220;SDS011;63802;53.232;6.570;2023-04-21T00:59:40;27.65;;;12.45;;
75220;SDS011;63802;53.232;6.570;2023-04-21T01:02:05;28.05;;;13.00;;
75220;SDS011;63802;53.232;6.570;2023-04-21T01:04:31;29.38;;;12.65;;
75220;SDS011;63802;53.232;6.570;2023-04-21T01:07:01;30.83;;;12.70;;
75220;SDS011;63802;53.232;6.570;2023-04-21T01:09:29;25.35;;;13.23;;
75220;SDS011;63802;53.232;6.570;2023-04-21T01:14:30;27.65;;;12.35;;
75220;SDS011;63802;53.232;6.570;2023-04-21T01:16:55;27.08;;;12.57;;
75220;SDS011;63802;53.232;6.570;2023-04-21T01:19:21;29.38;;;11.68;;
75220;SDS011;63802;53.232;6.570;2023-04-21T01:21:49;26.73;;;12.48;;
75220;SDS011;63802;53.232;6.570;2023-04-21T01:24:17;24.27;;;12.13;;
75220;SDS011;63802;53.232;6.570;2023-04-21T01:26:43;25.10;;;13.00;;
75220;SDS011;63802;53.232;6.570;2023-04-21T01:29:14;25.80;;;12.15;;
75220;SDS011;63802;53.232;6.570;2023-04-21T01:31:40;32.50;;;12.50;;
75220;SDS011;63802;53.232;6.570;2023-04-21T01:34:06;30.02;;;12.23;;
75220;SDS011;63802;53.232;6.570;2023-04-21T01:36:31;25.58;;;12.27;;
75220;SDS011;63802;53.232;6.570;2023-04-21T01:38:57;24.65;;;12.60;;
75220;SDS011;63802;53.232;6.570;2023-04-21T01:41:22;30.30;;;13.02;;
75220;SDS011;63802;53.232;6.570;2023-04-21T01:43:48;28.58;;;12.63;;
75220;SDS011;63802;53.232;6.570;2023-04-21T01:46:13;23.52;;;12.07;;
75220;SDS011;63802;53.232;6.570;2023-04-21T01:48:38;27.40;;;12.80;;
75220;SDS011;63802;53.232;6.570;2023-04-21T01:51:04;24.83;;;12.00;;
75220;SDS011;63802;53.232;6.570;2023-04-21T01:53:29;30.65;;;14.63;;
75220;SDS011;63802;53.232;6.570;2023-04-21T01:55:54;23.42;;;12.13;;
75220;SDS011;63802;53.232;6.570;2023-04-21T01:58:20;26.33;;;12.35;;
75220;SDS011;63802;53.232;6.570;2023-04-21T02:00:46;25.73;;;12.20;;
75220;SDS011;63802;53.232;6.570;2023-04-21T02:03:11;33.92;;;13.55;;
75220;SDS011;63802;53.232;6.570;2023-04-21T02:05:37;25.55;;;12.18;;
75220;SDS011;63802;53.232;6.570;2023-04-21T02:08:02;25.58;;;11.60;;
75220;SDS011;63802;53.232;6.570;2023-04-21T02:10:28;21.85;;;11.18;;
75220;SDS011;63802;53.232;6.570;2023-04-21T02:12:53;30.52;;;12.50;;
75220;SDS011;63802;53.232;6.570;2023-04-21T02:15:18;29.42;;;13.52;;
75220;SDS011;63802;53.232;6.570;2023-04-21T02:17:45;26.75;;;13.18;;
75220;SDS011;63802;53.232;6.570;2023-04-21T02:20:11;28.00;;;12.77;;
75220;SDS011;63802;53.232;6.570;2023-04-21T02:22:37;32.20;;;12.65;;
75220;SDS011;63802;53.232;6.570;2023-04-21T02:25:03;27.30;;;12.98;;
75220;SDS011;63802;53.232;6.570;2023-04-21T02:27:29;25.60;;;12.88;;
75220;SDS011;63802;53.232;6.570;2023-04-21T02:29:58;30.50;;;13.68;;
75220;SDS011;63802;53.232;6.570;2023-04-21T02:32:23;26.83;;;13.38;;
75220;SDS011;63802;53.232;6.570;2023-04-21T02:34:49;29.17;;;12.95;;
75220;SDS011;63802;53.232;6.570;2023-04-21T02:37:14;32.78;;;13.73;;
75220;SDS011;63802;53.232;6.570;2023-04-21T02:39:39;27.58;;;13.73;;
75220;SDS011;63802;53.232;6.570;2023-04-21T02:42:05;26.85;;;13.02;;
75220;SDS011;63802;53.232;6.570;2023-04-21T02:44:30;29.30;;;12.82;;
75220;SDS011;63802;53.232;6.570;2023-04-21T02:46:56;28.75;;;12.98;;
75220;SDS011;63802;53.232;6.570;2023-04-21T02:49:21;27.38;;;13.18;;
75220;SDS011;63802;53.232;6.570;2023-04-21T02:51:46;29.52;;;13.20;;
75220;SDS011;63802;53.232;6.570;2023-04-21T02:54:12;28.13;;;13.95;;
75220;SDS011;63802;53.232;6.570;2023-04-21T02:56:37;31.38;;;13.77;;
75220;SDS011;63802;53.232;6.570;2023-04-21T02:59:03;28.00;;;12.77;;
75220;SDS011;63802;53.232;6.570;2023-04-21T03:01:28;28.85;;;13.00;;
75220;SDS011;63802;53.232;6.570;2023-04-21T03:03:53;32.17;;;14.57;;
75220;SDS011;63802;53.232;6.570;2023-04-21T03:06:19;27.75;;;12.95;;
75220;SDS011;63802;53.232;6.570;2023-04-21T03:08:44;29.02;;;14.27;;
75220;SDS011;63802;53.232;6.570;2023-04-21T03:11:10;33.75;;;14.13;;
75220;SDS011;63802;53.232;6.570;2023-04-21T03:13:35;28.23;;;13.00;;
75220;SDS011;63802;53.232;6.570;2023-04-21T03:16:01;33.63;;;13.00;;
75220;SDS011;63802;53.232;6.570;2023-04-21T03:18:26;26.40;;;12.82;;
75220;SDS011;63802;53.232;6.570;2023-04-21T03:20:57;30.27;;;13.27;;
75220;SDS011;63802;53.232;6.570;2023-04-21T03:23:23;32.53;;;12.93;;
75220;SDS011;63802;53.232;6.570;2023-04-21T03:25:49;25.73;;;12.35;;
75220;SDS011;63802;53.232;6.570;2023-04-21T03:28:14;25.10;;;11.98;;
75220;SDS011;63802;53.232;6.570;2023-04-21T03:30:40;26.35;;;13.43;;
75220;SDS011;63802;53.232;6.570;2023-04-21T03:33:06;30.73;;;12.65;;
75220;SDS011;63802;53.232;6.570;2023-04-21T03:35:32;23.85;;;11.88;;
75220;SDS011;63802;53.232;6.570;2023-04-21T03:37:58;29.15;;;13.27;;
75220;SDS011;63802;53.232;6.570;2023-04-21T03:40:23;25.95;;;12.32;;
75220;SDS011;63802;53.232;6.570;2023-04-21T03:42:49;28.33;;;12.68;;
75220;SDS011;63802;53.232;6.570;2023-04-21T03:45:14;26.33;;;12.18;;
75220;SDS011;63802;53.232;6.570;2023-04-21T03:47:40;24.45;;;11.35;;
75220;SDS011;63802;53.232;6.570;2023-04-21T03:50:05;26.55;;;12.32;;
75220;SDS011;63802;53.232;6.570;2023-04-21T03:52:31;22.90;;;11.50;;
75220;SDS011;63802;53.232;6.570;2023-04-21T03:54:57;21.75;;;11.38;;
75220;SDS011;63802;53.232;6.570;2023-04-21T03:57:22;25.88;;;10.82;;
75220;SDS011;63802;53.232;6.570;2023-04-21T03:59:47;24.73;;;10.57;;
75220;SDS011;63802;53.232;6.570;2023-04-21T04:02:13;23.50;;;10.30;;
75220;SDS011;63802;53.232;6.570;2023-04-21T04:04:38;24.67;;;11.10;;
75220;SDS011;63802;53.232;6.570;2023-04-21T04:07:04;21.77;;;11.00;;
75220;SDS011;63802;53.232;6.570;2023-04-21T04:09:31;26.75;;;11.27;;
75220;SDS011;63802;53.232;6.570;2023-04-21T04:11:56;23.33;;;10.35;;
75220;SDS011;63802;53.232;6.570;2023-04-21T04:14:22;25.42;;;11.32;;
75220;SDS011;63802;53.232;6.570;2023-04-21T04:16:47;19.80;;;10.18;;
75220;SDS011;63802;53.232;6.570;2023-04-21T04:19:13;24.92;;;10.65;;
75220;SDS011;63802;53.232;6.570;2023-04-21T04:21:39;22.88;;;9.95;;
75220;SDS011;63802;53.232;6.570;2023-04-21T04:24:06;22.83;;;10.43;;
75220;SDS011;63802;53.232;6.570;2023-04-21T04:26:32;22.55;;;9.95;;
75220;SDS011;63802;53.232;6.570;2023-04-21T04:28:58;27.10;;;10.55;;
75220;SDS011;63802;53.232;6.570;2023-04-21T04:31:26;22.50;;;10.30;;
75220;SDS011;63802;53.232;6.570;2023-04-21T04:33:54;23.98;;;9.48;;
75220;SDS011;63802;53.232;6.570;2023-04-21T04:36:20;22.33;;;10.15;;
75220;SDS011;63802;53.232;6.570;2023-04-21T04:38:45;21.85;;;10.45;;
75220;SDS011;63802;53.232;6.570;2023-04-21T04:41:11;27.48;;;11.52;;
75220;SDS011;63802;53.232;6.570;2023-04-21T04:43:36;20.35;;;10.32;;
75220;SDS011;63802;53.232;6.570;2023-04-21T04:46:03;21.05;;;9.52;;
75220;SDS011;63802;53.232;6.570;2023-04-21T04:48:29;22.38;;;10.55;;
75220;SDS011;63802;53.232;6.570;2023-04-21T04:50:54;21.10;;;9.48;;
75220;SDS011;63802;53.232;6.570;2023-04-21T04:53:20;25.73;;;10.18;;
75220;SDS011;63802;53.232;6.570;2023-04-21T04:55:46;22.58;;;10.32;;
75220;SDS011;63802;53.232;6.570;2023-04-21T04:58:12;24.25;;;9.77;;
75220;SDS011;63802;53.232;6.570;2023-04-21T05:00:37;20.58;;;9.52;;
75220;SDS011;63802;53.232;6.570;2023-04-21T05:03:03;26.85;;;10.85;;
75220;SDS011;63802;53.232;6.570;2023-04-21T05:05:29;20.45;;;9.60;;
75220;SDS011;63802;53.232;6.570;2023-04-21T05:07:55;20.02;;;9.60;;
75220;SDS011;63802;53.232;6.570;2023-04-21T05:10:21;21.48;;;9.20;;
75220;SDS011;63802;53.232;6.570;2023-04-21T05:12:46;17.38;;;8.80;;
75220;SDS011;63802;53.232;6.570;2023-04-21T05:15:12;20.85;;;8.93;;
75220;SDS011;63802;53.232;6.570;2023-04-21T05:17:37;17.58;;;8.13;;
75220;SDS011;63802;53.232;6.570;2023-04-21T05:20:03;18.58;;;9.00;;
75220;SDS011;63802;53.232;6.570;2023-04-21T05:22:29;23.98;;;8.98;;
75220;SDS011;63802;53.232;6.570;2023-04-21T05:24:55;20.20;;;9.27;;
75220;SDS011;63802;53.232;6.570;2023-04-21T05:27:20;19.52;;;8.10;;
75220;SDS011;63802;53.232;6.570;2023-04-21T05:29:46;16.73;;;8.48;;
75220;SDS011;63802;53.232;6.570;2023-04-21T05:32:11;19.38;;;9.10;;
75220;SDS011;63802;53.232;6.570;2023-04-21T05:34:37;17.00;;;7.85;;
75220;SDS011;63802;53.232;6.570;2023-04-21T05:37:02;15.43;;;8.13;;
75220;SDS011;63802;53.232;6.570;2023-04-21T05:39:28;19.10;;;8.27;;
75220;SDS011;63802;53.232;6.570;2023-04-21T05:41:54;20.25;;;8.30;;
75220;SDS011;63802;53.232;6.570;2023-04-21T05:44:20;18.27;;;8.50;;
75220;SDS011;63802;53.232;6.570;2023-04-21T05:46:49;18.13;;;8.88;;
75220;SDS011;63802;53.232;6.570;2023-04-21T05:49:14;19.95;;;8.93;;
75220;SDS011;63802;53.232;6.570;2023-04-21T05:51:40;19.67;;;8.73;;
75220;SDS011;63802;53.232;6.570;2023-04-21T05:54:05;17.85;;;9.00;;
75220;SDS011;63802;53.232;6.570;2023-04-21T05:56:30;17.63;;;8.32;;
75220;SDS011;63802;53.232;6.570;2023-04-21T05:58:56;16.00;;;7.93;;
75220;SDS011;63802;53.232;6.570;2023-04-21T06:01:21;20.80;;;7.63;;
75220;SDS011;63802;53.232;6.570;2023-04-21T06:03:46;17.95;;;8.95;;
75220;SDS011;63802;53.232;6.570;2023-04-21T06:06:15;21.02;;;7.88;;
75220;SDS011;63802;53.232;6.570;2023-04-21T06:08:41;17.95;;;8.50;;
75220;SDS011;63802;53.232;6.570;2023-04-21T06:11:07;18.95;;;7.82;;
75220;SDS011;63802;53.232;6.570;2023-04-21T06:13:32;18.83;;;8.45;;
75220;SDS011;63802;53.232;6.570;2023-04-21T06:15:58;15.77;;;7.57;;
75220;SDS011;63802;53.232;6.570;2023-04-21T06:18:25;21.58;;;8.05;;
75220;SDS011;63802;53.232;6.570;2023-04-21T06:20:52;17.23;;;7.95;;
75220;SDS011;63802;53.232;6.570;2023-04-21T06:23:19;17.85;;;8.63;;
75220;SDS011;63802;53.232;6.570;2023-04-21T06:25:45;19.40;;;8.32;;
75220;SDS011;63802;53.232;6.570;2023-04-21T06:28:12;16.70;;;7.55;;
75220;SDS011;63802;53.232;6.570;2023-04-21T06:30:37;16.17;;;7.70;;
75220;SDS011;63802;53.232;6.570;2023-04-21T06:33:03;17.85;;;7.65;;
75220;SDS011;63802;53.232;6.570;2023-04-21T06:35:30;17.95;;;7.75;;
75220;SDS011;63802;53.232;6.570;2023-04-21T06:37:56;18.63;;;7.57;;
75220;SDS011;63802;53.232;6.570;2023-04-21T06:40:21;17.33;;;7.32;;
75220;SDS011;63802;53.232;6.570;2023-04-21T06:42:47;15.60;;;7.60;;
75220;SDS011;63802;53.232;6.570;2023-04-21T06:45:12;17.13;;;7.97;;
75220;SDS011;63802;53.232;6.570;2023-04-21T06:47:37;20.02;;;7.90;;
75220;SDS011;63802;53.232;6.570;2023-04-21T06:50:03;18.35;;;7.65;;
75220;SDS011;63802;53.232;6.570;2023-04-21T06:52:29;17.55;;;7.38;;
75220;SDS011;63802;53.232;6.570;2023-04-21T06:54:54;14.40;;;7.07;;
75220;SDS011;63802;53.232;6.570;2023-04-21T06:57:19;17.17;;;7.85;;
75220;SDS011;63802;53.232;6.570;2023-04-21T06:59:45;14.75;;;7.03;;
75220;SDS011;63802;53.232;6.570;2023-04-21T07:02:10;19.98;;;7.60;;
75220;SDS011;63802;53.232;6.570;2023-04-21T07:04:35;16.10;;;7.25;;
75220;SDS011;63802;53.232;6.570;2023-04-21T07:07:01;16.25;;;7.13;;
75220;SDS011;63802;53.232;6.570;2023-04-21T07:09:27;17.63;;;7.28;;
75220;SDS011;63802;53.232;6.570;2023-04-21T07:11:53;14.55;;;7.60;;
75220;SDS011;63802;53.232;6.570;2023-04-21T07:14:19;15.48;;;7.22;;
75220;SDS011;63802;53.232;6.570;2023-04-21T07:16:44;19.23;;;7.25;;
75220;SDS011;63802;53.232;6.570;2023-04-21T07:19:10;14.57;;;7.47;;
75220;SDS011;63802;53.232;6.570;2023-04-21T07:21:35;13.88;;;7.53;;
75220;SDS011;63802;53.232;6.570;2023-04-21T07:24:01;16.45;;;7.30;;
75220;SDS011;63802;53.232;6.570;2023-04-21T07:26:27;16.75;;;7.32;;
75220;SDS011;63802;53.232;6.570;2023-04-21T07:28:52;20.38;;;8.13;;
75220;SDS011;63802;53.232;6.570;2023-04-21T07:31:19;19.98;;;7.45;;
75220;SDS011;63802;53.232;6.570;2023-04-21T07:33:45;14.70;;;7.57;;
75220;SDS011;63802;53.232;6.570;2023-04-21T07:36:10;14.52;;;7.25;;
75220;SDS011;63802;53.232;6.570;2023-04-21T07:38:36;18.02;;;8.48;;
75220;SDS011;63802;53.232;6.570;2023-04-21T07:41:02;16.30;;;7.18;;
75220;SDS011;63802;53.232;6.570;2023-04-21T07:43:28;16.02;;;7.53;;
75220;SDS011;63802;53.232;6.570;2023-04-21T07:45:55;19.77;;;7.20;;
75220;SDS011;63802;53.232;6.570;2023-04-21T07:48:20;15.48;;;7.20;;
75220;SDS011;63802;53.232;6.570;2023-04-21T07:50:51;20.42;;;7.60;;
75220;SDS011;63802;53.232;6.570;2023-04-21T07:53:17;15.65;;;7.75;;
75220;SDS011;63802;53.232;6.570;2023-04-21T07:55:42;16.35;;;7.57;;
75220;SDS011;63802;53.232;6.570;2023-04-21T07:58:07;19.25;;;8.40;;
75220;SDS011;63802;53.232;6.570;2023-04-21T08:00:34;13.40;;;6.20;;
75220;SDS011;63802;53.232;6.570;2023-04-21T08:03:00;12.40;;;6.88;;
75220;SDS011;63802;53.232;6.570;2023-04-21T08:05:25;16.25;;;6.78;;
75220;SDS011;63802;53.232;6.570;2023-04-21T08:07:55;15.07;;;7.53;;
75220;SDS011;63802;53.232;6.570;2023-04-21T08:10:20;17.13;;;7.68;;
75220;SDS011;63802;53.232;6.570;2023-04-21T08:12:45;19.67;;;7.40;;
75220;SDS011;63802;53.232;6.570;2023-04-21T08:15:11;15.73;;;7.55;;
75220;SDS011;63802;53.232;6.570;2023-04-21T08:17:36;15.90;;;6.72;;
75220;SDS011;63802;53.232;6.570;2023-04-21T08:20:02;15.23;;;6.93;;
75220;SDS011;63802;53.232;6.570;2023-04-21T08:22:28;13.07;;;7.72;;
75220;SDS011;63802;53.232;6.570;2023-04-21T08:24:54;13.57;;;7.50;;
75220;SDS011;63802;53.232;6.570;2023-04-21T08:27:20;14.90;;;6.90;;
75220;SDS011;63802;53.232;6.570;2023-04-21T08:29:45;16.23;;;8.15;;
75220;SDS011;63802;53.232;6.570;2023-04-21T08:32:11;14.18;;;7.15;;
75220;SDS011;63802;53.232;6.570;2023-04-21T08:34:37;13.55;;;7.00;;
75220;SDS011;63802;53.232;6.570;2023-04-21T08:37:02;16.67;;;7.35;;
75220;SDS011;63802;53.232;6.570;2023-04-21T08:39:28;18.15;;;6.63;;
75220;SDS011;63802;53.232;6.570;2023-04-21T08:41:53;14.75;;;6.60;;
75220;SDS011;63802;53.232;6.570;2023-04-21T08:44:19;13.43;;;7.55;;
75220;SDS011;63802;53.232;6.570;2023-04-21T08:46:46;16.55;;;7.38;;
75220;SDS011;63802;53.232;6.570;2023-04-21T08:49:13;15.48;;;7.43;;
75220;SDS011;63802;53.232;6.570;2023-04-21T08:51:43;17.85;;;7.60;;
75220;SDS011;63802;53.232;6.570;2023-04-21T08:54:09;18.13;;;7.15;;
75220;SDS011;63802;53.232;6.570;2023-04-21T08:56:34;15.05;;;7.38;;
75220;SDS011;63802;53.232;6.570;2023-04-21T08:58:59;15.30;;;7.15;;
75220;SDS011;63802;53.232;6.570;2023-04-21T09:01:25;12.73;;;6.70;;
75220;SDS011;63802;53.232;6.570;2023-04-21T09:03:52;13.38;;;6.65;;
75220;SDS011;63802;53.232;6.570;2023-04-21T09:06:18;15.73;;;7.45;;
75220;SDS011;63802;53.232;6.570;2023-04-21T09:08:45;13.05;;;7.30;;
75220;SDS011;63802;53.232;6.570;2023-04-21T09:11:17;19.20;;;7.25;;
75220;SDS011;63802;53.232;6.570;2023-04-21T09:13:43;12.27;;;6.75;;
75220;SDS011;63802;53.232;6.570;2023-04-21T09:16:18;14.52;;;7.07;;
75220;SDS011;63802;53.232;6.570;2023-04-21T09:18:45;14.20;;;7.32;;
75220;SDS011;63802;53.232;6.570;2023-04-21T09:21:12;15.52;;;7.85;;
75220;SDS011;63802;53.232;6.570;2023-04-21T09:26:12;16.45;;;6.70;;
75220;SDS011;63802;53.232;6.570;2023-04-21T09:28:40;17.30;;;7.18;;
75220;SDS011;63802;53.232;6.570;2023-04-21T09:31:11;14.63;;;6.57;;
75220;SDS011;63802;53.232;6.570;2023-04-21T09:33:43;14.65;;;7.05;;
75220;SDS011;63802;53.232;6.570;2023-04-21T09:36:08;15.82;;;7.20;;
75220;SDS011;63802;53.232;6.570;2023-04-21T09:38:42;15.15;;;7.18;;
75220;SDS011;63802;53.232;6.570;2023-04-21T09:41:08;22.25;;;7.47;;
75220;SDS011;63802;53.232;6.570;2023-04-21T09:43:33;16.30;;;7.38;;
75220;SDS011;63802;53.232;6.570;2023-04-21T09:45:58;14.52;;;6.43;;
75220;SDS011;63802;53.232;6.570;2023-04-21T09:48:27;11.68;;;6.60;;
75220;SDS011;63802;53.232;6.570;2023-04-21T09:50:57;15.55;;;7.40;;
75220;SDS011;63802;53.232;6.570;2023-04-21T09:53:23;16.63;;;6.63;;
75220;SDS011;63802;53.232;6.570;2023-04-21T09:55:52;24.50;;;8.90;;
75220;SDS011;63802;53.232;6.570;2023-04-21T09:58:21;14.40;;;7.55;;
75220;SDS011;63802;53.232;6.570;2023-04-21T10:00:51;18.33;;;7.13;;
75220;SDS011;63802;53.232;6.570;2023-04-21T10:03:19;13.83;;;6.80;;
75220;SDS011;63802;53.232;6.570;2023-04-21T10:05:51;28.60;;;11.90;;
75220;SDS011;63802;53.232;6.570;2023-04-21T10:08:17;28.35;;;11.32;;
75220;SDS011;63802;53.232;6.570;2023-04-21T10:10:43;17.88;;;8.70;;
75220;SDS011;63802;53.232;6.570;2023-04-21T10:13:12;31.77;;;12.18;;
75220;SDS011;63802;53.232;6.570;2023-04-21T10:15:42;31.48;;;15.15;;
75220;SDS011;63802;53.232;6.570;2023-04-21T10:18:15;33.00;;;14.25;;
75220;SDS011;63802;53.232;6.570;2023-04-21T10:20:52;20.45;;;8.63;;
75220;SDS011;63802;53.232;6.570;2023-04-21T10:23:27;27.33;;;12.02;;
75220;SDS011;63802;53.232;6.570;2023-04-21T10:25:56;27.35;;;13.60;;
75220;SDS011;63802;53.232;6.570;2023-04-21T10:28:59;35.30;;;18.23;;
75220;SDS011;63802;53.232;6.570;2023-04-21T10:36:29;15.60;;;6.03;;
75220;SDS011;63802;53.232;6.570;2023-04-21T10:38:55;12.75;;;6.13;;
75220;SDS011;63802;53.232;6.570;2023-04-21T10:41:26;12.80;;;6.30;;
75220;SDS011;63802;53.232;6.570;2023-04-21T10:43:56;18.25;;;6.95;;
75220;SDS011;63802;53.232;6.570;2023-04-21T10:46:36;16.05;;;6.40;;
75220;SDS011;63802;53.232;6.570;2023-04-21T10:49:10;14.00;;;7.47;;
75220;SDS011;63802;53.232;6.570;2023-04-21T10:54:24;15.27;;;7.45;;
75220;SDS011;63802;53.232;6.570;2023-04-21T10:56:50;17.65;;;7.38;;
75220;SDS011;63802;53.232;6.570;2023-04-21T10:59:17;16.55;;;6.35;;
75220;SDS011;63802;53.232;6.570;2023-04-21T11:01:44;14.93;;;5.93;;
75220;SDS011;63802;53.232;6.570;2023-04-21T11:04:13;12.25;;;6.07;;
75220;SDS011;63802;53.232;6.570;2023-04-21T11:06:39;15.40;;;5.70;;
75220;SDS011;63802;53.232;6.570;2023-04-21T11:09:05;12.75;;;5.03;;
75220;SDS011;63802;53.232;6.570;2023-04-21T11:11:31;15.30;;;5.20;;
75220;SDS011;63802;53.232;6.570;2023-04-21T11:13:58;18.08;;;5.45;;
75220;SDS011;63802;53.232;6.570;2023-04-21T11:16:25;16.05;;;5.70;;
75220;SDS011;63802;53.232;6.570;2023-04-21T11:18:51;14.50;;;5.75;;
75220;SDS011;63802;53.232;6.570;2023-04-21T11:21:17;12.23;;;6.00;;
75220;SDS011;63802;53.232;6.570;2023-04-21T11:26:28;10.05;;;5.05;;
75220;SDS011;63802;53.232;6.570;2023-04-21T11:29:02;10.70;;;4.85;;
75220;SDS011;63802;53.232;6.570;2023-04-21T11:31:30;10.20;;;4.90;;
75220;SDS011;63802;53.232;6.570;2023-04-21T11:33:55;15.10;;;5.57;;
75220;SDS011;63802;53.232;6.570;2023-04-21T11:36:22;10.02;;;4.97;;
75220;SDS011;63802;53.232;6.570;2023-04-21T11:38:47;16.52;;;5.13;;
75220;SDS011;63802;53.232;6.570;2023-04-21T11:41:19;10.85;;;5.00;;
75220;SDS011;63802;53.232;6.570;2023-04-21T11:43:49;11.95;;;4.90;;
75220;SDS011;63802;53.232;6.570;2023-04-21T11:46:25;7.80;;;5.15;;
75220;SDS011;63802;53.232;6.570;2023-04-21T11:49:01;13.15;;;4.82;;
75220;SDS011;63802;53.232;6.570;2023-04-21T11:51:31;9.25;;;4.32;;
75220;SDS011;63802;53.232;6.570;2023-04-21T11:54:00;9.00;;;4.60;;
75220;SDS011;63802;53.232;6.570;2023-04-21T11:56:26;13.25;;;5.00;;
75220;SDS011;63802;53.232;6.570;2023-04-21T11:58:51;11.77;;;5.10;;
75220;SDS011;63802;53.232;6.570;2023-04-21T12:01:18;14.02;;;4.38;;
75220;SDS011;63802;53.232;6.570;2023-04-21T12:03:52;10.32;;;4.40;;
75220;SDS011;63802;53.232;6.570;2023-04-21T12:06:22;7.78;;;4.60;;
75220;SDS011;63802;53.232;6.570;2023-04-21T12:08:53;9.10;;;4.88;;
75220;SDS011;63802;53.232;6.570;2023-04-21T12:11:20;11.55;;;5.10;;
75220;SDS011;63802;53.232;6.570;2023-04-21T12:13:46;11.00;;;4.90;;
75220;SDS011;63802;53.232;6.570;2023-04-21T12:16:12;10.25;;;5.18;;
75220;SDS011;63802;53.232;6.570;2023-04-21T12:18:37;8.88;;;4.78;;
75220;SDS011;63802;53.232;6.570;2023-04-21T12:21:03;14.27;;;4.72;;
75220;SDS011;63802;53.232;6.570;2023-04-21T12:23:28;9.40;;;5.55;;
75220;SDS011;63802;53.232;6.570;2023-04-21T12:25:54;9.20;;;5.15;;
75220;SDS011;63802;53.232;6.570;2023-04-21T12:28:19;11.65;;;5.30;;
75220;SDS011;63802;53.232;6.570;2023-04-21T12:30:45;11.73;;;5.53;;
75220;SDS011;63802;53.232;6.570;2023-04-21T12:33:11;10.18;;;5.45;;
75220;SDS011;63802;53.232;6.570;2023-04-21T12:35:37;14.07;;;5.47;;
75220;SDS011;63802;53.232;6.570;2023-04-21T12:38:03;8.02;;;4.93;;
75220;SDS011;63802;53.232;6.570;2023-04-21T12:40:28;11.52;;;5.18;;
75220;SDS011;63802;53.232;6.570;2023-04-21T12:42:54;11.02;;;5.00;;
75220;SDS011;63802;53.232;6.570;2023-04-21T12:45:19;14.90;;;4.63;;
75220;SDS011;63802;53.232;6.570;2023-04-21T12:47:45;11.00;;;4.63;;
75220;SDS011;63802;53.232;6.570;2023-04-21T12:50:10;10.35;;;5.20;;
75220;SDS011;63802;53.232;6.570;2023-04-21T12:52:37;11.80;;;5.00;;
75220;SDS011;63802;53.232;6.570;2023-04-21T12:55:02;10.48;;;4.57;;
75220;SDS011;63802;53.232;6.570;2023-04-21T12:57:28;11.90;;;4.75;;
75220;SDS011;63802;53.232;6.570;2023-04-21T12:59:55;11.07;;;4.95;;
75220;SDS011;63802;53.232;6.570;2023-04-21T13:02:21;10.25;;;5.40;;
75220;SDS011;63802;53.232;6.570;2023-04-21T13:04:46;12.70;;;5.00;;
75220;SDS011;63802;53.232;6.570;2023-04-21T13:07:12;10.50;;;4.53;;
75220;SDS011;63802;53.232;6.570;2023-04-21T13:09:38;8.70;;;4.30;;
75220;SDS011;63802;53.232;6.570;2023-04-21T13:12:04;10.15;;;4.25;;
75220;SDS011;63802;53.232;6.570;2023-04-21T13:14:29;8.68;;;4.40;;
75220;SDS011;63802;53.232;6.570;2023-04-21T13:16:55;16.85;;;3.80;;
75220;SDS011;63802;53.232;6.570;2023-04-21T13:19:21;7.47;;;3.30;;
75220;SDS011;63802;53.232;6.570;2023-04-21T13:21:46;11.43;;;3.90;;
75220;SDS011;63802;53.232;6.570;2023-04-21T13:24:12;11.73;;;3.70;;
75220;SDS011;63802;53.232;6.570;2023-04-21T13:26:38;13.00;;;3.50;;
75220;SDS011;63802;53.232;6.570;2023-04-21T13:29:03;7.90;;;3.60;;
75220;SDS011;63802;53.232;6.570;2023-04-21T13:31:29;12.25;;;3.70;;
75220;SDS011;63802;53.232;6.570;2023-04-21T13:33:54;9.40;;;3.50;;
75220;SDS011;63802;53.232;6.570;2023-04-21T13:36:20;9.75;;;3.33;;
75220;SDS011;63802;53.232;6.570;2023-04-21T13:38:46;9.32;;;3.30;;
75220;SDS011;63802;53.232;6.570;2023-04-21T13:41:12;11.63;;;3.40;;
75220;SDS011;63802;53.232;6.570;2023-04-21T13:43:37;7.05;;;3.22;;
75220;SDS011;63802;53.232;6.570;2023-04-21T13:46:03;10.77;;;3.45;;
75220;SDS011;63802;53.232;6.570;2023-04-21T13:48:29;7.07;;;3.15;;
75220;SDS011;63802;53.232;6.570;2023-04-21T13:50:54;8.60;;;3.38;;
75220;SDS011;63802;53.232;6.570;2023-04-21T13:53:20;7.57;;;3.53;;
75220;SDS011;63802;53.232;6.570;2023-04-21T13:55:45;7.57;;;3.42;;
75220;SDS011;63802;53.232;6.570;2023-04-21T13:58:12;5.82;;;3.10;;
75220;SDS011;63802;53.232;6.570;2023-04-21T14:00:39;16.85;;;3.40;;
75220;SDS011;63802;53.232;6.570;2023-04-21T14:03:05;7.43;;;3.08;;
75220;SDS011;63802;53.232;6.570;2023-04-21T14:05:31;8.95;;;3.50;;
75220;SDS011;63802;53.232;6.570;2023-04-21T14:07:57;7.28;;;3.40;;
75220;SDS011;63802;53.232;6.570;2023-04-21T14:10:23;10.82;;;4.43;;
75220;SDS011;63802;53.232;6.570;2023-04-21T14:12:48;8.77;;;3.10;;
75220;SDS011;63802;53.232;6.570;2023-04-21T14:15:14;7.78;;;3.13;;
75220;SDS011;63802;53.232;6.570;2023-04-21T14:17:40;8.63;;;3.50;;
75220;SDS011;63802;53.232;6.570;2023-04-21T14:20:05;11.93;;;3.15;;
75220;SDS011;63802;53.232;6.570;2023-04-21T14:22:33;8.95;;;3.38;;
75220;SDS011;63802;53.232;6.570;2023-04-21T14:24:59;6.65;;;3.25;;
75220;SDS011;63802;53.232;6.570;2023-04-21T14:27:24;5.68;;;3.25;;
75220;SDS011;63802;53.232;6.570;2023-04-21T14:29:50;8.05;;;3.63;;
75220;SDS011;63802;53.232;6.570;2023-04-21T14:32:15;5.93;;;3.13;;
75220;SDS011;63802;53.232;6.570;2023-04-21T14:34:44;9.25;;;3.70;;
75220;SDS011;63802;53.232;6.570;2023-04-21T14:37:10;6.50;;;3.20;;
75220;SDS011;63802;53.232;6.570;2023-04-21T14:39:35;8.55;;;3.80;;
75220;SDS011;63802;53.232;6.570;2023-04-21T14:42:01;5.50;;;3.40;;